sensor_id;sensor_type;location;lat;lon;timestamp;P1;durP1;ratioP1;P2;durP2;ratioP2
38465;SDS011;24244;51.950;5.902;2023-11-19T00:01:09;7.13;;;4.95;;
38465;SDS011;24244;51.950;5.902;2023-11-19T00:03:36;7.00;;;4.72;;
38465;SDS011;24244;51.950;5.902;2023-11-19T00:06:03;10.52;;;6.32;;
38465;SDS011;24244;51.950;5.902;2023-11-19T00:08:30;9.57;;;6.15;;
38465;SDS011;24244;51.950;5.902;2023-11-19T00:10:57;10.07;;;6.22;;
38465;SDS011;24244;51.950;5.902;2023-11-19T00:13:24;10.73;;;6.18;;
38465;SDS011;24244;51.950;5.902;2023-11-19T00:15:53;8.50;;;5.43;;
38465;SDS011;24244;51.950;5.902;2023-11-19T00:18:20;10.15;;;5.40;;
38465;SDS011;24244;51.950;5.902;2023-11-19T00:20:48;9.57;;;5.80;;
38465;SDS011;24244;51.950;5.902;2023-11-19T00:23:15;9.65;;;5.70;;
38465;SDS011;24244;51.950;5.902;2023-11-19T00:25:42;8.90;;;5.45;;
38465;SDS011;24244;51.950;5.902;2023-11-19T00:28:09;7.43;;;4.78;;
38465;SDS011;24244;51.950;5.902;2023-11-19T00:30:36;8.70;;;4.72;;
38465;SDS011;24244;51.950;5.902;2023-11-19T00:33:04;8.73;;;5.07;;
38465;SDS011;24244;51.950;5.902;2023-11-19T00:35:31;8.63;;;5.35;;
38465;SDS011;24244;51.950;5.902;2023-11-19T00:37:59;8.77;;;4.90;;
38465;SDS011;24244;51.950;5.902;2023-11-19T00:40:27;9.75;;;4.22;;
38465;SDS011;24244;51.950;5.902;2023-11-19T00:42:55;7.32;;;3.92;;
38465;SDS011;24244;51.950;5.902;2023-11-19T00:45:24;7.95;;;4.53;;
38465;SDS011;24244;51.950;5.902;2023-11-19T00:47:51;5.90;;;3.78;;
38465;SDS011;24244;51.950;5.902;2023-11-19T00:50:19;7.40;;;3.60;;
38465;SDS011;24244;51.950;5.902;2023-11-19T00:52:46;5.30;;;3.17;;
38465;SDS011;24244;51.950;5.902;2023-11-19T00:55:13;7.28;;;3.35;;
38465;SDS011;24244;51.950;5.902;2023-11-19T00:57:40;8.07;;;4.15;;
38465;SDS011;24244;51.950;5.902;2023-11-19T01:00:07;7.20;;;3.72;;
38465;SDS011;24244;51.950;5.902;2023-11-19T01:02:45;7.88;;;3.75;;
38465;SDS011;24244;51.950;5.902;2023-11-19T01:05:12;5.57;;;3.38;;
38465;SDS011;24244;51.950;5.902;2023-11-19T01:07:43;12.52;;;3.90;;
38465;SDS011;24244;51.950;5.902;2023-11-19T01:10:10;8.43;;;3.83;;
38465;SDS011;24244;51.950;5.902;2023-11-19T01:12:37;6.07;;;2.92;;
38465;SDS011;24244;51.950;5.902;2023-11-19T01:15:05;6.50;;;3.10;;
38465;SDS011;24244;51.950;5.902;2023-11-19T01:17:32;5.97;;;3.13;;
38465;SDS011;24244;51.950;5.902;2023-11-19T01:19:59;6.65;;;2.90;;
38465;SDS011;24244;51.950;5.902;2023-11-19T01:22:26;6.60;;;2.60;;
38465;SDS011;24244;51.950;5.902;2023-11-19T01:24:54;6.97;;;2.83;;
38465;SDS011;24244;51.950;5.902;2023-11-19T01:27:21;7.60;;;2.78;;
38465;SDS011;24244;51.950;5.902;2023-11-19T01:29:47;7.80;;;2.40;;
38465;SDS011;24244;51.950;5.902;2023-11-19T01:32:14;6.32;;;2.40;;
38465;SDS011;24244;51.950;5.902;2023-11-19T01:34:41;6.63;;;2.30;;
38465;SDS011;24244;51.950;5.902;2023-11-19T01:37:08;5.93;;;2.40;;
38465;SDS011;24244;51.950;5.902;2023-11-19T01:39:36;5.90;;;2.40;;
38465;SDS011;24244;51.950;5.902;2023-11-19T01:42:05;4.80;;;2.17;;
38465;SDS011;24244;51.950;5.902;2023-11-19T01:44:32;6.85;;;2.25;;
38465;SDS011;24244;51.950;5.902;2023-11-19T01:47:00;3.75;;;1.73;;
38465;SDS011;24244;51.950;5.902;2023-11-19T01:49:27;8.88;;;2.72;;
38465;SDS011;24244;51.950;5.902;2023-11-19T01:51:55;8.30;;;3.00;;
38465;SDS011;24244;51.950;5.902;2023-11-19T01:54:23;10.57;;;2.55;;
38465;SDS011;24244;51.950;5.902;2023-11-19T01:56:52;6.85;;;2.20;;
38465;SDS011;24244;51.950;5.902;2023-11-19T01:59:24;5.50;;;2.17;;
38465;SDS011;24244;51.950;5.902;2023-11-19T02:01:53;4.35;;;1.40;;
38465;SDS011;24244;51.950;5.902;2023-11-19T02:04:23;5.88;;;1.80;;
38465;SDS011;24244;51.950;5.902;2023-11-19T02:06:51;7.82;;;1.90;;
38465;SDS011;24244;51.950;5.902;2023-11-19T02:09:23;5.80;;;1.63;;
38465;SDS011;24244;51.950;5.902;2023-11-19T02:11:50;5.88;;;1.98;;
38465;SDS011;24244;51.950;5.902;2023-11-19T02:14:18;12.13;;;3.00;;
38465;SDS011;24244;51.950;5.902;2023-11-19T02:16:47;8.38;;;2.42;;
38465;SDS011;24244;51.950;5.902;2023-11-19T02:19:14;6.78;;;2.10;;
38465;SDS011;24244;51.950;5.902;2023-11-19T02:21:41;9.32;;;1.98;;
38465;SDS011;24244;51.950;5.902;2023-11-19T02:24:08;8.57;;;2.45;;
38465;SDS011;24244;51.950;5.902;2023-11-19T02:26:39;6.47;;;1.88;;
38465;SDS011;24244;51.950;5.902;2023-11-19T02:29:15;9.10;;;2.05;;
38465;SDS011;24244;51.950;5.902;2023-11-19T02:31:42;12.52;;;2.50;;
38465;SDS011;24244;51.950;5.902;2023-11-19T02:34:10;8.65;;;1.98;;
38465;SDS011;24244;51.950;5.902;2023-11-19T02:36:39;8.77;;;2.30;;
38465;SDS011;24244;51.950;5.902;2023-11-19T02:39:07;7.95;;;1.95;;
38465;SDS011;24244;51.950;5.902;2023-11-19T02:41:37;8.75;;;1.60;;
38465;SDS011;24244;51.950;5.902;2023-11-19T02:44:06;8.52;;;2.45;;
38465;SDS011;24244;51.950;5.902;2023-11-19T02:46:34;7.78;;;2.33;;
38465;SDS011;24244;51.950;5.902;2023-11-19T02:49:01;6.95;;;2.08;;
38465;SDS011;24244;51.950;5.902;2023-11-19T02:51:28;7.38;;;1.65;;
38465;SDS011;24244;51.950;5.902;2023-11-19T02:53:56;5.70;;;1.70;;
38465;SDS011;24244;51.950;5.902;2023-11-19T02:56:24;7.88;;;1.63;;
38465;SDS011;24244;51.950;5.902;2023-11-19T02:58:52;5.65;;;1.10;;
38465;SDS011;24244;51.950;5.902;2023-11-19T03:01:23;8.25;;;1.33;;
38465;SDS011;24244;51.950;5.902;2023-11-19T03:03:58;14.20;;;3.10;;
38465;SDS011;24244;51.950;5.902;2023-11-19T03:06:28;8.32;;;1.50;;
38465;SDS011;24244;51.950;5.902;2023-11-19T03:08:55;10.00;;;1.88;;
38465;SDS011;24244;51.950;5.902;2023-11-19T03:11:22;12.10;;;2.42;;
38465;SDS011;24244;51.950;5.902;2023-11-19T03:13:51;14.57;;;2.22;;
38465;SDS011;24244;51.950;5.902;2023-11-19T03:16:18;11.63;;;1.95;;
38465;SDS011;24244;51.950;5.902;2023-11-19T03:18:45;7.43;;;1.40;;
38465;SDS011;24244;51.950;5.902;2023-11-19T03:21:13;17.85;;;3.15;;
38465;SDS011;24244;51.950;5.902;2023-11-19T03:23:40;13.70;;;2.17;;
38465;SDS011;24244;51.950;5.902;2023-11-19T03:26:07;10.88;;;2.08;;
38465;SDS011;24244;51.950;5.902;2023-11-19T03:28:35;15.65;;;2.60;;
38465;SDS011;24244;51.950;5.902;2023-11-19T03:31:04;7.45;;;1.65;;
38465;SDS011;24244;51.950;5.902;2023-11-19T03:33:31;10.57;;;1.90;;
38465;SDS011;24244;51.950;5.902;2023-11-19T03:35:58;12.93;;;2.50;;
38465;SDS011;24244;51.950;5.902;2023-11-19T03:38:26;13.32;;;3.47;;
38465;SDS011;24244;51.950;5.902;2023-11-19T03:40:53;8.85;;;1.95;;
38465;SDS011;24244;51.950;5.902;2023-11-19T03:43:19;7.82;;;1.50;;
38465;SDS011;24244;51.950;5.902;2023-11-19T03:45:46;10.57;;;1.98;;
38465;SDS011;24244;51.950;5.902;2023-11-19T03:48:14;11.60;;;2.28;;
38465;SDS011;24244;51.950;5.902;2023-11-19T03:50:43;12.57;;;3.10;;
38465;SDS011;24244;51.950;5.902;2023-11-19T03:53:11;12.45;;;3.05;;
38465;SDS011;24244;51.950;5.902;2023-11-19T03:55:39;8.52;;;1.67;;
38465;SDS011;24244;51.950;5.902;2023-11-19T03:58:06;13.73;;;2.15;;
38465;SDS011;24244;51.950;5.902;2023-11-19T04:00:33;12.73;;;2.80;;
38465;SDS011;24244;51.950;5.902;2023-11-19T04:03:00;18.45;;;3.05;;
38465;SDS011;24244;51.950;5.902;2023-11-19T04:05:27;11.05;;;1.65;;
38465;SDS011;24244;51.950;5.902;2023-11-19T04:07:54;9.60;;;1.80;;
38465;SDS011;24244;51.950;5.902;2023-11-19T04:10:25;7.88;;;1.55;;
38465;SDS011;24244;51.950;5.902;2023-11-19T04:12:55;12.05;;;2.45;;
38465;SDS011;24244;51.950;5.902;2023-11-19T04:15:22;14.15;;;3.30;;
38465;SDS011;24244;51.950;5.902;2023-11-19T04:17:49;9.50;;;2.55;;
38465;SDS011;24244;51.950;5.902;2023-11-19T04:20:16;9.40;;;1.85;;
38465;SDS011;24244;51.950;5.902;2023-11-19T04:22:42;11.90;;;1.70;;
38465;SDS011;24244;51.950;5.902;2023-11-19T04:25:09;18.65;;;2.65;;
38465;SDS011;24244;51.950;5.902;2023-11-19T04:27:37;7.38;;;1.45;;
38465;SDS011;24244;51.950;5.902;2023-11-19T04:30:06;10.90;;;2.13;;
38465;SDS011;24244;51.950;5.902;2023-11-19T04:32:37;10.27;;;2.67;;
38465;SDS011;24244;51.950;5.902;2023-11-19T04:35:06;11.40;;;1.83;;
38465;SDS011;24244;51.950;5.902;2023-11-19T04:37:33;14.23;;;2.28;;
38465;SDS011;24244;51.950;5.902;2023-11-19T04:40:01;8.52;;;1.42;;
38465;SDS011;24244;51.950;5.902;2023-11-19T04:42:28;9.18;;;1.77;;
38465;SDS011;24244;51.950;5.902;2023-11-19T04:44:55;16.70;;;2.85;;
38465;SDS011;24244;51.950;5.902;2023-11-19T04:47:24;9.88;;;2.22;;
38465;SDS011;24244;51.950;5.902;2023-11-19T04:49:51;14.15;;;2.22;;
38465;SDS011;24244;51.950;5.902;2023-11-19T04:52:18;9.35;;;1.65;;
38465;SDS011;24244;51.950;5.902;2023-11-19T04:54:45;11.23;;;3.05;;
38465;SDS011;24244;51.950;5.902;2023-11-19T04:57:11;7.78;;;1.92;;
38465;SDS011;24244;51.950;5.902;2023-11-19T04:59:38;12.60;;;2.05;;
38465;SDS011;24244;51.950;5.902;2023-11-19T05:02:06;12.52;;;1.73;;
38465;SDS011;24244;51.950;5.902;2023-11-19T05:04:36;7.88;;;1.73;;
38465;SDS011;24244;51.950;5.902;2023-11-19T05:07:04;10.90;;;2.78;;
38465;SDS011;24244;51.950;5.902;2023-11-19T05:09:31;9.45;;;1.40;;
38465;SDS011;24244;51.950;5.902;2023-11-19T05:11:58;11.95;;;1.88;;
38465;SDS011;24244;51.950;5.902;2023-11-19T05:14:25;10.80;;;2.25;;
38465;SDS011;24244;51.950;5.902;2023-11-19T05:16:51;8.75;;;1.63;;
38465;SDS011;24244;51.950;5.902;2023-11-19T05:19:18;11.75;;;2.17;;
38465;SDS011;24244;51.950;5.902;2023-11-19T05:21:46;12.73;;;1.60;;
38465;SDS011;24244;51.950;5.902;2023-11-19T05:24:13;12.45;;;1.70;;
38465;SDS011;24244;51.950;5.902;2023-11-19T05:26:40;9.40;;;1.42;;
38465;SDS011;24244;51.950;5.902;2023-11-19T05:29:07;5.43;;;1.50;;
38465;SDS011;24244;51.950;5.902;2023-11-19T05:31:34;13.35;;;2.70;;
38465;SDS011;24244;51.950;5.902;2023-11-19T05:34:03;9.40;;;2.17;;
38465;SDS011;24244;51.950;5.902;2023-11-19T05:36:30;8.45;;;1.73;;
38465;SDS011;24244;51.950;5.902;2023-11-19T05:38:59;11.05;;;2.80;;
38465;SDS011;24244;51.950;5.902;2023-11-19T05:41:25;14.32;;;3.25;;
38465;SDS011;24244;51.950;5.902;2023-11-19T05:43:52;9.75;;;1.92;;
38465;SDS011;24244;51.950;5.902;2023-11-19T05:46:19;9.10;;;1.50;;
38465;SDS011;24244;51.950;5.902;2023-11-19T05:48:47;12.05;;;1.92;;
38465;SDS011;24244;51.950;5.902;2023-11-19T05:51:14;9.00;;;1.60;;
38465;SDS011;24244;51.950;5.902;2023-11-19T05:53:42;9.20;;;1.48;;
38465;SDS011;24244;51.950;5.902;2023-11-19T05:56:10;10.38;;;1.77;;
38465;SDS011;24244;51.950;5.902;2023-11-19T05:58:37;13.73;;;3.55;;
38465;SDS011;24244;51.950;5.902;2023-11-19T06:01:06;14.63;;;2.53;;
38465;SDS011;24244;51.950;5.902;2023-11-19T06:03:35;15.80;;;2.60;;
38465;SDS011;24244;51.950;5.902;2023-11-19T06:06:03;8.05;;;1.80;;
38465;SDS011;24244;51.950;5.902;2023-11-19T06:08:31;16.15;;;3.10;;
38465;SDS011;24244;51.950;5.902;2023-11-19T06:10:58;13.98;;;2.60;;
38465;SDS011;24244;51.950;5.902;2023-11-19T06:13:29;11.43;;;2.92;;
38465;SDS011;24244;51.950;5.902;2023-11-19T06:15:57;14.48;;;1.88;;
38465;SDS011;24244;51.950;5.902;2023-11-19T06:18:25;13.70;;;1.85;;
38465;SDS011;24244;51.950;5.902;2023-11-19T06:20:52;13.80;;;1.98;;
38465;SDS011;24244;51.950;5.902;2023-11-19T06:23:19;12.32;;;2.03;;
38465;SDS011;24244;51.950;5.902;2023-11-19T06:25:46;9.50;;;1.60;;
38465;SDS011;24244;51.950;5.902;2023-11-19T06:28:12;14.55;;;2.65;;
38465;SDS011;24244;51.950;5.902;2023-11-19T06:30:41;9.55;;;2.30;;
38465;SDS011;24244;51.950;5.902;2023-11-19T06:33:12;7.55;;;1.40;;
38465;SDS011;24244;51.950;5.902;2023-11-19T06:35:39;9.23;;;1.63;;
38465;SDS011;24244;51.950;5.902;2023-11-19T06:38:06;13.73;;;2.92;;
38465;SDS011;24244;51.950;5.902;2023-11-19T06:40:33;11.73;;;2.70;;
38465;SDS011;24244;51.950;5.902;2023-11-19T06:43:01;9.77;;;1.48;;
38465;SDS011;24244;51.950;5.902;2023-11-19T06:45:35;8.35;;;2.13;;
38465;SDS011;24244;51.950;5.902;2023-11-19T06:48:05;9.07;;;1.88;;
38465;SDS011;24244;51.950;5.902;2023-11-19T06:50:32;14.90;;;2.22;;
38465;SDS011;24244;51.950;5.902;2023-11-19T06:52:59;10.02;;;1.83;;
38465;SDS011;24244;51.950;5.902;2023-11-19T06:55:26;7.97;;;1.40;;
38465;SDS011;24244;51.950;5.902;2023-11-19T06:57:53;14.20;;;2.53;;
38465;SDS011;24244;51.950;5.902;2023-11-19T07:00:20;13.70;;;2.22;;
38465;SDS011;24244;51.950;5.902;2023-11-19T07:02:47;14.70;;;3.03;;
38465;SDS011;24244;51.950;5.902;2023-11-19T07:05:16;13.45;;;2.80;;
38465;SDS011;24244;51.950;5.902;2023-11-19T07:07:43;15.10;;;3.00;;
38465;SDS011;24244;51.950;5.902;2023-11-19T07:10:10;11.18;;;1.88;;
38465;SDS011;24244;51.950;5.902;2023-11-19T07:12:37;13.27;;;2.25;;
38465;SDS011;24244;51.950;5.902;2023-11-19T07:15:05;10.45;;;1.88;;
38465;SDS011;24244;51.950;5.902;2023-11-19T07:17:33;14.15;;;2.75;;
38465;SDS011;24244;51.950;5.902;2023-11-19T07:20:01;7.95;;;1.15;;
38465;SDS011;24244;51.950;5.902;2023-11-19T07:22:30;10.43;;;1.20;;
38465;SDS011;24244;51.950;5.902;2023-11-19T07:24:56;14.15;;;1.98;;
38465;SDS011;24244;51.950;5.902;2023-11-19T07:27:23;12.35;;;1.90;;
38465;SDS011;24244;51.950;5.902;2023-11-19T07:29:50;9.65;;;1.98;;
38465;SDS011;24244;51.950;5.902;2023-11-19T07:32:18;10.95;;;2.17;;
38465;SDS011;24244;51.950;5.902;2023-11-19T07:34:44;12.93;;;3.15;;
38465;SDS011;24244;51.950;5.902;2023-11-19T07:37:11;10.52;;;2.08;;
38465;SDS011;24244;51.950;5.902;2023-11-19T07:39:40;14.65;;;2.03;;
38465;SDS011;24244;51.950;5.902;2023-11-19T07:42:08;11.88;;;1.83;;
38465;SDS011;24244;51.950;5.902;2023-11-19T07:44:36;7.65;;;1.35;;
38465;SDS011;24244;51.950;5.902;2023-11-19T07:47:04;17.25;;;3.47;;
38465;SDS011;24244;51.950;5.902;2023-11-19T07:49:31;11.75;;;1.98;;
38465;SDS011;24244;51.950;5.902;2023-11-19T07:51:58;8.20;;;1.50;;
38465;SDS011;24244;51.950;5.902;2023-11-19T07:54:25;8.65;;;1.63;;
38465;SDS011;24244;51.950;5.902;2023-11-19T07:56:53;10.32;;;2.03;;
38465;SDS011;24244;51.950;5.902;2023-11-19T07:59:20;9.07;;;1.40;;
38465;SDS011;24244;51.950;5.902;2023-11-19T08:01:47;8.95;;;1.52;;
38465;SDS011;24244;51.950;5.902;2023-11-19T08:04:14;11.25;;;1.85;;
38465;SDS011;24244;51.950;5.902;2023-11-19T08:06:42;20.52;;;3.45;;
38465;SDS011;24244;51.950;5.902;2023-11-19T08:09:08;14.02;;;3.03;;
38465;SDS011;24244;51.950;5.902;2023-11-19T08:14:08;10.93;;;1.80;;
38465;SDS011;24244;51.950;5.902;2023-11-19T08:16:35;8.40;;;1.17;;
38465;SDS011;24244;51.950;5.902;2023-11-19T08:19:03;8.10;;;1.20;;
38465;SDS011;24244;51.950;5.902;2023-11-19T08:21:30;12.02;;;1.83;;
38465;SDS011;24244;51.950;5.902;2023-11-19T08:23:57;14.43;;;2.42;;
38465;SDS011;24244;51.950;5.902;2023-11-19T08:26:23;15.43;;;2.45;;
38465;SDS011;24244;51.950;5.902;2023-11-19T08:28:50;15.68;;;2.80;;
38465;SDS011;24244;51.950;5.902;2023-11-19T08:31:19;8.70;;;1.60;;
38465;SDS011;24244;51.950;5.902;2023-11-19T08:33:46;12.32;;;2.08;;
38465;SDS011;24244;51.950;5.902;2023-11-19T08:36:16;13.55;;;2.15;;
38465;SDS011;24244;51.950;5.902;2023-11-19T08:38:44;9.82;;;1.90;;
38465;SDS011;24244;51.950;5.902;2023-11-19T08:41:11;12.50;;;1.92;;
38465;SDS011;24244;51.950;5.902;2023-11-19T08:43:37;9.48;;;2.40;;
38465;SDS011;24244;51.950;5.902;2023-11-19T08:46:09;9.25;;;2.10;;
38465;SDS011;24244;51.950;5.902;2023-11-19T08:48:37;8.18;;;1.27;;
38465;SDS011;24244;51.950;5.902;2023-11-19T08:51:05;15.18;;;1.92;;
38465;SDS011;24244;51.950;5.902;2023-11-19T08:53:32;10.63;;;3.00;;
38465;SDS011;24244;51.950;5.902;2023-11-19T08:56:00;9.27;;;1.67;;
38465;SDS011;24244;51.950;5.902;2023-11-19T08:58:29;10.95;;;2.20;;
38465;SDS011;24244;51.950;5.902;2023-11-19T09:00:57;13.20;;;1.80;;
38465;SDS011;24244;51.950;5.902;2023-11-19T09:03:24;13.00;;;1.65;;
38465;SDS011;24244;51.950;5.902;2023-11-19T09:05:58;6.95;;;1.27;;
38465;SDS011;24244;51.950;5.902;2023-11-19T09:08:26;10.00;;;1.52;;
38465;SDS011;24244;51.950;5.902;2023-11-19T09:10:53;8.10;;;1.52;;
38465;SDS011;24244;51.950;5.902;2023-11-19T09:13:20;9.93;;;1.80;;
38465;SDS011;24244;51.950;5.902;2023-11-19T09:15:47;12.73;;;1.88;;
38465;SDS011;24244;51.950;5.902;2023-11-19T09:18:14;11.43;;;1.80;;
38465;SDS011;24244;51.950;5.902;2023-11-19T09:20:41;11.18;;;2.10;;
38465;SDS011;24244;51.950;5.902;2023-11-19T09:23:09;8.73;;;1.83;;
38465;SDS011;24244;51.950;5.902;2023-11-19T09:25:36;10.32;;;1.80;;
38465;SDS011;24244;51.950;5.902;2023-11-19T09:28:05;11.80;;;1.92;;
38465;SDS011;24244;51.950;5.902;2023-11-19T09:30:32;7.03;;;2.03;;
38465;SDS011;24244;51.950;5.902;2023-11-19T09:33:00;11.68;;;1.88;;
38465;SDS011;24244;51.950;5.902;2023-11-19T09:35:27;14.77;;;2.00;;
38465;SDS011;24244;51.950;5.902;2023-11-19T09:37:54;15.27;;;1.80;;
38465;SDS011;24244;51.950;5.902;2023-11-19T09:40:22;10.82;;;1.92;;
38465;SDS011;24244;51.950;5.902;2023-11-19T09:42:49;11.43;;;2.05;;
38465;SDS011;24244;51.950;5.902;2023-11-19T09:45:17;12.20;;;1.95;;
38465;SDS011;24244;51.950;5.902;2023-11-19T09:47:47;10.60;;;2.13;;
38465;SDS011;24244;51.950;5.902;2023-11-19T09:50:17;10.27;;;1.50;;
38465;SDS011;24244;51.950;5.902;2023-11-19T09:52:45;9.85;;;1.63;;
38465;SDS011;24244;51.950;5.902;2023-11-19T09:55:13;9.43;;;1.42;;
38465;SDS011;24244;51.950;5.902;2023-11-19T09:57:41;10.27;;;1.88;;
38465;SDS011;24244;51.950;5.902;2023-11-19T10:00:11;11.27;;;2.15;;
38465;SDS011;24244;51.950;5.902;2023-11-19T10:02:41;9.30;;;1.33;;
38465;SDS011;24244;51.950;5.902;2023-11-19T10:05:13;9.30;;;1.58;;
38465;SDS011;24244;51.950;5.902;2023-11-19T10:07:42;9.98;;;2.03;;
38465;SDS011;24244;51.950;5.902;2023-11-19T10:10:09;14.18;;;2.20;;
38465;SDS011;24244;51.950;5.902;2023-11-19T10:12:41;11.75;;;2.00;;
38465;SDS011;24244;51.950;5.902;2023-11-19T10:15:24;16.25;;;2.50;;
38465;SDS011;24244;51.950;5.902;2023-11-19T10:17:54;16.30;;;2.70;;
38465;SDS011;24244;51.950;5.902;2023-11-19T10:20:21;19.48;;;3.42;;
38465;SDS011;24244;51.950;5.902;2023-11-19T10:22:52;12.57;;;1.75;;
38465;SDS011;24244;51.950;5.902;2023-11-19T10:25:22;8.30;;;1.48;;
38465;SDS011;24244;51.950;5.902;2023-11-19T10:27:51;13.38;;;2.92;;
38465;SDS011;24244;51.950;5.902;2023-11-19T10:30:20;9.65;;;2.08;;
38465;SDS011;24244;51.950;5.902;2023-11-19T10:33:02;12.65;;;3.05;;
38465;SDS011;24244;51.950;5.902;2023-11-19T10:35:30;13.32;;;2.30;;
38465;SDS011;24244;51.950;5.902;2023-11-19T10:37:58;15.38;;;2.30;;
38465;SDS011;24244;51.950;5.902;2023-11-19T10:40:37;10.73;;;2.70;;
38465;SDS011;24244;51.950;5.902;2023-11-19T10:43:07;7.72;;;1.60;;
38465;SDS011;24244;51.950;5.902;2023-11-19T10:45:34;8.88;;;1.60;;
38465;SDS011;24244;51.950;5.902;2023-11-19T10:48:01;12.68;;;1.88;;
38465;SDS011;24244;51.950;5.902;2023-11-19T10:50:33;10.57;;;2.30;;
38465;SDS011;24244;51.950;5.902;2023-11-19T10:53:00;8.60;;;1.73;;
38465;SDS011;24244;51.950;5.902;2023-11-19T10:55:28;13.38;;;2.10;;
38465;SDS011;24244;51.950;5.902;2023-11-19T10:57:58;11.00;;;2.00;;
38465;SDS011;24244;51.950;5.902;2023-11-19T11:00:29;14.07;;;1.90;;
38465;SDS011;24244;51.950;5.902;2023-11-19T11:03:01;8.23;;;1.33;;
38465;SDS011;24244;51.950;5.902;2023-11-19T11:05:29;11.73;;;2.10;;
38465;SDS011;24244;51.950;5.902;2023-11-19T11:07:59;14.05;;;2.03;;
38465;SDS011;24244;51.950;5.902;2023-11-19T11:10:27;13.20;;;2.00;;
38465;SDS011;24244;51.950;5.902;2023-11-19T11:13:00;11.95;;;2.13;;
38465;SDS011;24244;51.950;5.902;2023-11-19T11:15:31;9.70;;;2.33;;
38465;SDS011;24244;51.950;5.902;2023-11-19T11:17:59;13.43;;;1.98;;
38465;SDS011;24244;51.950;5.902;2023-11-19T11:20:31;14.55;;;2.40;;
38465;SDS011;24244;51.950;5.902;2023-11-19T11:23:12;19.15;;;2.50;;
38465;SDS011;24244;51.950;5.902;2023-11-19T11:26:09;11.52;;;1.98;;
38465;SDS011;24244;51.950;5.902;2023-11-19T11:28:52;9.15;;;1.40;;
38465;SDS011;24244;51.950;5.902;2023-11-19T11:31:29;13.90;;;1.83;;
38465;SDS011;24244;51.950;5.902;2023-11-19T11:34:10;7.68;;;1.60;;
38465;SDS011;24244;51.950;5.902;2023-11-19T11:36:54;9.82;;;2.22;;
38465;SDS011;24244;51.950;5.902;2023-11-19T11:39:30;11.90;;;1.95;;
38465;SDS011;24244;51.950;5.902;2023-11-19T11:45:02;14.05;;;3.22;;
38465;SDS011;24244;51.950;5.902;2023-11-19T11:53:25;11.20;;;2.20;;
38465;SDS011;24244;51.950;5.902;2023-11-19T11:55:52;9.10;;;2.53;;
38465;SDS011;24244;51.950;5.902;2023-11-19T11:58:29;9.35;;;2.47;;
38465;SDS011;24244;51.950;5.902;2023-11-19T12:01:01;12.52;;;2.58;;
38465;SDS011;24244;51.950;5.902;2023-11-19T12:03:31;8.07;;;1.35;;
38465;SDS011;24244;51.950;5.902;2023-11-19T12:05:59;12.68;;;2.38;;
38465;SDS011;24244;51.950;5.902;2023-11-19T12:08:27;12.70;;;2.17;;
38465;SDS011;24244;51.950;5.902;2023-11-19T12:10:57;10.68;;;1.80;;
38465;SDS011;24244;51.950;5.902;2023-11-19T12:13:29;9.48;;;1.35;;
38465;SDS011;24244;51.950;5.902;2023-11-19T12:16:12;7.65;;;1.42;;
38465;SDS011;24244;51.950;5.902;2023-11-19T12:18:41;10.93;;;2.38;;
38465;SDS011;24244;51.950;5.902;2023-11-19T12:21:08;12.43;;;1.10;;
38465;SDS011;24244;51.950;5.902;2023-11-19T12:23:44;8.93;;;2.40;;
38465;SDS011;24244;51.950;5.902;2023-11-19T12:29:14;6.13;;;1.23;;
38465;SDS011;24244;51.950;5.902;2023-11-19T12:31:43;6.55;;;1.10;;
38465;SDS011;24244;51.950;5.902;2023-11-19T12:34:21;6.32;;;1.20;;
38465;SDS011;24244;51.950;5.902;2023-11-19T12:36:51;8.57;;;1.38;;
38465;SDS011;24244;51.950;5.902;2023-11-19T12:39:18;6.05;;;0.88;;
38465;SDS011;24244;51.950;5.902;2023-11-19T12:41:50;7.18;;;1.30;;
38465;SDS011;24244;51.950;5.902;2023-11-19T12:44:21;6.38;;;1.25;;
38465;SDS011;24244;51.950;5.902;2023-11-19T12:47:04;7.82;;;1.33;;
38465;SDS011;24244;51.950;5.902;2023-11-19T12:49:39;9.88;;;1.95;;
38465;SDS011;24244;51.950;5.902;2023-11-19T12:52:11;9.07;;;1.45;;
38465;SDS011;24244;51.950;5.902;2023-11-19T12:54:39;8.60;;;1.08;;
38465;SDS011;24244;51.950;5.902;2023-11-19T12:57:06;7.28;;;1.35;;
38465;SDS011;24244;51.950;5.902;2023-11-19T12:59:33;5.68;;;1.02;;
38465;SDS011;24244;51.950;5.902;2023-11-19T13:02:02;8.55;;;1.20;;
38465;SDS011;24244;51.950;5.902;2023-11-19T13:04:32;7.35;;;1.25;;
38465;SDS011;24244;51.950;5.902;2023-11-19T13:07:02;5.65;;;1.23;;
38465;SDS011;24244;51.950;5.902;2023-11-19T13:09:32;8.20;;;1.42;;
38465;SDS011;24244;51.950;5.902;2023-11-19T13:11:59;7.13;;;1.35;;
38465;SDS011;24244;51.950;5.902;2023-11-19T13:14:39;7.30;;;1.92;;
38465;SDS011;24244;51.950;5.902;2023-11-19T13:17:08;7.10;;;1.30;;
38465;SDS011;24244;51.950;5.902;2023-11-19T13:19:35;10.07;;;1.63;;
38465;SDS011;24244;51.950;5.902;2023-11-19T13:22:06;8.57;;;1.30;;
38465;SDS011;24244;51.950;5.902;2023-11-19T13:24:40;6.22;;;1.17;;
38465;SDS011;24244;51.950;5.902;2023-11-19T13:27:14;8.70;;;1.83;;
38465;SDS011;24244;51.950;5.902;2023-11-19T13:29:41;6.32;;;1.23;;
38465;SDS011;24244;51.950;5.902;2023-11-19T13:32:08;4.82;;;1.23;;
38465;SDS011;24244;51.950;5.902;2023-11-19T13:34:36;6.28;;;1.42;;
38465;SDS011;24244;51.950;5.902;2023-11-19T13:37:04;4.43;;;0.90;;
38465;SDS011;24244;51.950;5.902;2023-11-19T13:39:31;7.88;;;2.42;;
38465;SDS011;24244;51.950;5.902;2023-11-19T13:41:59;6.90;;;1.00;;
38465;SDS011;24244;51.950;5.902;2023-11-19T13:44:30;6.30;;;1.42;;
38465;SDS011;24244;51.950;5.902;2023-11-19T13:46:57;9.55;;;1.50;;
38465;SDS011;24244;51.950;5.902;2023-11-19T13:49:27;6.28;;;1.38;;
38465;SDS011;24244;51.950;5.902;2023-11-19T13:51:55;10.32;;;1.90;;
38465;SDS011;24244;51.950;5.902;2023-11-19T13:54:23;7.05;;;1.95;;
38465;SDS011;24244;51.950;5.902;2023-11-19T13:56:50;6.80;;;1.52;;
38465;SDS011;24244;51.950;5.902;2023-11-19T13:59:25;8.40;;;1.75;;
38465;SDS011;24244;51.950;5.902;2023-11-19T14:01:52;11.23;;;2.50;;
38465;SDS011;24244;51.950;5.902;2023-11-19T14:04:19;10.05;;;2.40;;
38465;SDS011;24244;51.950;5.902;2023-11-19T14:06:46;6.32;;;1.60;;
38465;SDS011;24244;51.950;5.902;2023-11-19T14:09:13;9.23;;;2.05;;
38465;SDS011;24244;51.950;5.902;2023-11-19T14:11:42;10.90;;;1.85;;
38465;SDS011;24244;51.950;5.902;2023-11-19T14:14:09;9.77;;;2.00;;
38465;SDS011;24244;51.950;5.902;2023-11-19T14:16:35;9.05;;;2.05;;
38465;SDS011;24244;51.950;5.902;2023-11-19T14:19:04;13.07;;;2.63;;
38465;SDS011;24244;51.950;5.902;2023-11-19T14:21:33;6.57;;;1.65;;
38465;SDS011;24244;51.950;5.902;2023-11-19T14:24:02;9.45;;;2.40;;
38465;SDS011;24244;51.950;5.902;2023-11-19T14:26:29;5.95;;;1.52;;
38465;SDS011;24244;51.950;5.902;2023-11-19T14:28:57;10.00;;;2.10;;
38465;SDS011;24244;51.950;5.902;2023-11-19T14:31:27;11.00;;;2.10;;
38465;SDS011;24244;51.950;5.902;2023-11-19T14:33:54;7.72;;;2.10;;
38465;SDS011;24244;51.950;5.902;2023-11-19T14:36:22;7.32;;;1.65;;
38465;SDS011;24244;51.950;5.902;2023-11-19T14:38:49;8.18;;;1.65;;
38465;SDS011;24244;51.950;5.902;2023-11-19T14:41:17;7.38;;;1.95;;
38465;SDS011;24244;51.950;5.902;2023-11-19T14:43:44;5.75;;;1.13;;
38465;SDS011;24244;51.950;5.902;2023-11-19T14:46:12;5.97;;;1.45;;
38465;SDS011;24244;51.950;5.902;2023-11-19T14:48:39;7.25;;;1.30;;
38465;SDS011;24244;51.950;5.902;2023-11-19T14:51:07;6.00;;;1.17;;
38465;SDS011;24244;51.950;5.902;2023-11-19T14:53:34;10.88;;;2.05;;
38465;SDS011;24244;51.950;5.902;2023-11-19T14:56:01;8.77;;;1.80;;
38465;SDS011;24244;51.950;5.902;2023-11-19T14:58:28;7.93;;;1.80;;
38465;SDS011;24244;51.950;5.902;2023-11-19T15:01:00;6.63;;;1.30;;
38465;SDS011;24244;51.950;5.902;2023-11-19T15:03:32;9.52;;;1.60;;